Decoded Metar for KFDW (FAIRFIELD COUNTY AIRPORT in SC, USA) (IATA:N/A) | Meteo·Mobile Aviation Weather
aviador You're here:

KFDW Decoded Metar

FAIRFIELD COUNTY AIRPORT in SC, USA
Report Time2019-11-16 01:55:00
UTC Time2019-11-16 01:58:31
Flight Rules mvfr MVFR
Wind360° at 10 Gusting to 17 kt
W.Decomp.*RWY 04: 8.4 kt HW 5.4 kt LCW
Visibility9999 m
Phenomena:Rain
Clouds:Overcast 020 Hf
Expected CloudBase > 800 ft AGL from Temp-Dew spread
Ceiling2,000 ft
Temp05°C (ISA -9)
Dew Point03°C (87% RH)
AAT-0.1°C
QNH1018 hPa
Density Alt-558 ft
Elevation577 ft
Report Wrong Elevation
Raw Report
METAR KFDW 160155Z AUTO 36010G17KT 7SM RA OVC020 05/03 A3006 RMK AO1=

Extra information for KFDW:More info

Metar Taf Metar & Taf Last 4 Metars F.Rules Stats Wind Profile Meteogram Temp Stats Airport Information Weather charts Add Link Nearby VenuesMetar ALERT Operation Metar Decoded Social comments

AIRNAV info for KFDW